Neuruppin, Germany

2:27 AM CEST on September 02, 2014 (GMT +0200)
Neuruppin | Change Station
CLOSE
Current Station
Personal Weather Station
Location: Fehrbellin, BRANDENBURG
Elevation: 135 ft
Nearby Weather Stations

Elev 135 ft 52.79 °N, 12.76 °E | Updated 42 seconds ago

Light Rain
Light Rain
59.0 °F
Feels Like 59.0 °F
N
1.6
Wind Variable Wind from NE
Gusts 3.1 mph

Today
High -- | Low -- °F
--% Chance of Precip.
Yesterday
High -- | Low -- °F
Precip. -- in
6:20 AM 7:55 PM
Waxing Crescent, 45% visible
Pressure 30.06 in
Visibility 2.5 miles
Clouds Few 300 ft
Scattered Clouds 500 ft
Mostly Cloudy 800 ft
Dew Point 58 °F
Humidity 98%
Rainfall 0.04 in
Snow Depth Not available.
UV 0 out of 12
Pollen Not available.
Air Quality Not available.
Flu Activity Not available.
METAR EDDT 020020Z 06002KT 4000 -RA FEW003 SCT005 BKN008 15/14 Q1018

More Conditions Fewer Conditions

Pressure 30.06 in
Visibility 2.5 miles
Clouds Few 300 ft
Scattered Clouds 500 ft
Mostly Cloudy 800 ft
Dew Point 58 °F
Humidity 98%
Rainfall 0.04 in
Snow Depth Not available.
UV 0 out of 12
Pollen Not available.
Air Quality Not available.
Flu Activity Not available.
METAR EDDT 020020Z 06002KT 4000 -RA FEW003 SCT005 BKN008 15/14 Q1018

More Conditions Fewer Conditions

10-Day Weather Forecast

Almanac

Astronomy

Sep. 02, 2014 Rise Set
Actual Time 6:20 AM CEST 7:55 PM CEST
Civil Twilight 5:44 AM CEST 8:31 PM CEST
Nautical Twilight 4:59 AM CEST 9:15 PM CEST
Astronomical Twilight 4:09 AM CEST 10:04 PM CEST
Moon 2:45 PM CEST 11:35 PM CEST
Length of Visible Light 14h 47m
Length of Day
13h 35m
Tomorrow will be 4m 3s shorter.
Waxing Crescent, 45% of the Moon is Illuminated
Sep 1
Waxing Crescent
Sep 2
First Quarter
Sep 8
Full
Sep 15
Last Quarter
Sep 24
New

Yesterday's Extremes

Country Highs Country Lows

Community

WunderPhotos

Upload Photos

1,749,461 photos uploaded!

Nearby

Snow Depth

Not available.

Earthquake Activity

City Distance Mag. Time & Date
No recent earthquake activity has been reported nearby.
Minimum magnitude displayed is 2.5.

Coastal Water Temperatures

Place Temperature
No Stations Reporting

Nearby Weather Stations